sensor_id;sensor_type;location;lat;lon;timestamp;P1;durP1;ratioP1;P2;durP2;ratioP2
71763;SDS011;59602;52.142;5.408;2022-07-12T00:01:53;1.13;;;0.50;;
71763;SDS011;59602;52.142;5.408;2022-07-12T00:04:20;1.13;;;0.38;;
71763;SDS011;59602;52.142;5.408;2022-07-12T00:06:47;2.17;;;0.65;;
71763;SDS011;59602;52.142;5.408;2022-07-12T00:09:15;1.80;;;0.47;;
71763;SDS011;59602;52.142;5.408;2022-07-12T00:11:41;1.57;;;0.60;;
71763;SDS011;59602;52.142;5.408;2022-07-12T00:14:08;1.48;;;0.50;;
71763;SDS011;59602;52.142;5.408;2022-07-12T00:16:36;1.90;;;0.50;;
71763;SDS011;59602;52.142;5.408;2022-07-12T00:19:03;1.52;;;0.70;;
71763;SDS011;59602;52.142;5.408;2022-07-12T00:21:30;2.28;;;0.85;;
71763;SDS011;59602;52.142;5.408;2022-07-12T00:23:57;2.37;;;0.90;;
71763;SDS011;59602;52.142;5.408;2022-07-12T00:26:24;1.42;;;0.90;;
71763;SDS011;59602;52.142;5.408;2022-07-12T00:28:50;2.00;;;0.77;;
71763;SDS011;59602;52.142;5.408;2022-07-12T00:31:17;1.98;;;1.17;;
71763;SDS011;59602;52.142;5.408;2022-07-12T00:33:44;2.50;;;0.70;;
71763;SDS011;59602;52.142;5.408;2022-07-12T00:36:11;3.80;;;1.17;;
71763;SDS011;59602;52.142;5.408;2022-07-12T00:38:37;4.20;;;1.00;;
71763;SDS011;59602;52.142;5.408;2022-07-12T00:41:04;1.88;;;0.75;;
71763;SDS011;59602;52.142;5.408;2022-07-12T00:43:31;2.47;;;1.10;;
71763;SDS011;59602;52.142;5.408;2022-07-12T00:45:57;2.03;;;1.00;;
71763;SDS011;59602;52.142;5.408;2022-07-12T00:48:24;3.30;;;1.27;;
71763;SDS011;59602;52.142;5.408;2022-07-12T00:50:51;2.83;;;1.27;;
71763;SDS011;59602;52.142;5.408;2022-07-12T00:53:18;3.80;;;1.13;;
71763;SDS011;59602;52.142;5.408;2022-07-12T00:55:54;2.70;;;1.45;;
71763;SDS011;59602;52.142;5.408;2022-07-12T00:58:22;2.60;;;1.30;;
71763;SDS011;59602;52.142;5.408;2022-07-12T01:00:49;3.23;;;1.27;;
71763;SDS011;59602;52.142;5.408;2022-07-12T01:03:16;2.47;;;1.00;;
71763;SDS011;59602;52.142;5.408;2022-07-12T01:05:43;2.67;;;1.50;;
71763;SDS011;59602;52.142;5.408;2022-07-12T01:08:12;2.15;;;1.20;;
71763;SDS011;59602;52.142;5.408;2022-07-12T01:10:39;2.42;;;1.30;;
71763;SDS011;59602;52.142;5.408;2022-07-12T01:13:06;3.03;;;1.17;;
71763;SDS011;59602;52.142;5.408;2022-07-12T01:15:33;2.13;;;1.10;;
71763;SDS011;59602;52.142;5.408;2022-07-12T01:18:00;3.05;;;1.40;;
71763;SDS011;59602;52.142;5.408;2022-07-12T01:20:29;3.25;;;1.52;;
71763;SDS011;59602;52.142;5.408;2022-07-12T01:22:57;2.10;;;1.38;;
71763;SDS011;59602;52.142;5.408;2022-07-12T01:25:25;2.43;;;1.20;;
71763;SDS011;59602;52.142;5.408;2022-07-12T01:27:52;2.10;;;1.10;;
71763;SDS011;59602;52.142;5.408;2022-07-12T01:30:19;2.30;;;1.25;;
71763;SDS011;59602;52.142;5.408;2022-07-12T01:32:47;2.97;;;1.25;;
71763;SDS011;59602;52.142;5.408;2022-07-12T01:35:14;2.80;;;1.40;;
71763;SDS011;59602;52.142;5.408;2022-07-12T01:37:41;2.37;;;1.10;;
71763;SDS011;59602;52.142;5.408;2022-07-12T01:40:09;3.03;;;1.10;;
71763;SDS011;59602;52.142;5.408;2022-07-12T01:42:37;2.60;;;1.15;;
71763;SDS011;59602;52.142;5.408;2022-07-12T01:45:05;2.67;;;1.17;;
71763;SDS011;59602;52.142;5.408;2022-07-12T01:47:32;2.55;;;1.20;;
71763;SDS011;59602;52.142;5.408;2022-07-12T01:50:00;2.77;;;1.30;;
71763;SDS011;59602;52.142;5.408;2022-07-12T01:52:27;3.65;;;1.30;;
71763;SDS011;59602;52.142;5.408;2022-07-12T01:54:55;2.45;;;1.45;;
71763;SDS011;59602;52.142;5.408;2022-07-12T01:57:23;2.88;;;1.65;;
71763;SDS011;59602;52.142;5.408;2022-07-12T01:59:51;2.75;;;1.23;;
71763;SDS011;59602;52.142;5.408;2022-07-12T02:02:17;2.13;;;1.33;;
71763;SDS011;59602;52.142;5.408;2022-07-12T02:04:44;1.77;;;1.00;;
71763;SDS011;59602;52.142;5.408;2022-07-12T02:07:11;2.00;;;0.80;;
71763;SDS011;59602;52.142;5.408;2022-07-12T02:09:38;3.35;;;1.13;;
71763;SDS011;59602;52.142;5.408;2022-07-12T02:12:04;2.28;;;0.90;;
71763;SDS011;59602;52.142;5.408;2022-07-12T02:14:31;2.07;;;1.13;;
71763;SDS011;59602;52.142;5.408;2022-07-12T02:16:58;2.42;;;1.00;;
71763;SDS011;59602;52.142;5.408;2022-07-12T02:19:25;2.67;;;1.20;;
71763;SDS011;59602;52.142;5.408;2022-07-12T02:21:53;2.55;;;1.00;;
71763;SDS011;59602;52.142;5.408;2022-07-12T02:24:20;3.38;;;1.05;;
71763;SDS011;59602;52.142;5.408;2022-07-12T02:26:47;2.93;;;1.00;;
71763;SDS011;59602;52.142;5.408;2022-07-12T02:29:13;2.25;;;1.15;;
71763;SDS011;59602;52.142;5.408;2022-07-12T02:31:40;2.25;;;1.10;;
71763;SDS011;59602;52.142;5.408;2022-07-12T02:34:06;2.08;;;1.00;;
71763;SDS011;59602;52.142;5.408;2022-07-12T02:36:34;3.33;;;1.30;;
71763;SDS011;59602;52.142;5.408;2022-07-12T02:39:01;2.30;;;1.30;;
71763;SDS011;59602;52.142;5.408;2022-07-12T02:41:30;3.13;;;1.00;;
71763;SDS011;59602;52.142;5.408;2022-07-12T02:43:57;4.82;;;1.10;;
71763;SDS011;59602;52.142;5.408;2022-07-12T02:46:24;3.13;;;1.10;;
71763;SDS011;59602;52.142;5.408;2022-07-12T02:48:52;2.13;;;0.68;;
71763;SDS011;59602;52.142;5.408;2022-07-12T02:51:19;3.20;;;1.20;;
71763;SDS011;59602;52.142;5.408;2022-07-12T02:53:45;1.75;;;0.90;;
71763;SDS011;59602;52.142;5.408;2022-07-12T02:56:12;2.15;;;1.23;;
71763;SDS011;59602;52.142;5.408;2022-07-12T02:58:39;1.85;;;0.98;;
71763;SDS011;59602;52.142;5.408;2022-07-12T03:01:07;1.95;;;0.80;;
71763;SDS011;59602;52.142;5.408;2022-07-12T03:03:34;1.57;;;1.10;;
71763;SDS011;59602;52.142;5.408;2022-07-12T03:06:01;2.20;;;1.30;;
71763;SDS011;59602;52.142;5.408;2022-07-12T03:08:28;1.80;;;1.08;;
71763;SDS011;59602;52.142;5.408;2022-07-12T03:10:55;2.63;;;1.05;;
71763;SDS011;59602;52.142;5.408;2022-07-12T03:13:22;2.38;;;1.20;;
71763;SDS011;59602;52.142;5.408;2022-07-12T03:15:49;1.77;;;1.03;;
71763;SDS011;59602;52.142;5.408;2022-07-12T03:18:16;2.35;;;1.20;;
71763;SDS011;59602;52.142;5.408;2022-07-12T03:20:43;1.70;;;0.90;;
71763;SDS011;59602;52.142;5.408;2022-07-12T03:23:10;3.88;;;1.20;;
71763;SDS011;59602;52.142;5.408;2022-07-12T03:25:37;2.80;;;1.35;;
71763;SDS011;59602;52.142;5.408;2022-07-12T03:28:03;1.70;;;1.00;;
71763;SDS011;59602;52.142;5.408;2022-07-12T03:30:30;2.22;;;1.13;;
71763;SDS011;59602;52.142;5.408;2022-07-12T03:32:57;2.72;;;1.10;;
71763;SDS011;59602;52.142;5.408;2022-07-12T03:35:24;2.13;;;1.00;;
71763;SDS011;59602;52.142;5.408;2022-07-12T03:37:51;1.85;;;1.13;;
71763;SDS011;59602;52.142;5.408;2022-07-12T03:40:19;3.70;;;1.37;;
71763;SDS011;59602;52.142;5.408;2022-07-12T03:42:47;2.65;;;1.33;;
71763;SDS011;59602;52.142;5.408;2022-07-12T03:45:15;3.60;;;1.73;;
71763;SDS011;59602;52.142;5.408;2022-07-12T03:47:42;3.38;;;1.52;;
71763;SDS011;59602;52.142;5.408;2022-07-12T03:50:10;3.38;;;1.88;;
71763;SDS011;59602;52.142;5.408;2022-07-12T03:52:40;2.67;;;1.50;;
71763;SDS011;59602;52.142;5.408;2022-07-12T03:55:08;3.70;;;1.73;;
71763;SDS011;59602;52.142;5.408;2022-07-12T03:57:35;3.25;;;1.65;;
71763;SDS011;59602;52.142;5.408;2022-07-12T04:00:05;4.70;;;1.70;;
71763;SDS011;59602;52.142;5.408;2022-07-12T04:02:34;2.28;;;1.42;;
71763;SDS011;59602;52.142;5.408;2022-07-12T04:05:00;3.43;;;1.70;;
71763;SDS011;59602;52.142;5.408;2022-07-12T04:07:27;2.55;;;1.55;;
71763;SDS011;59602;52.142;5.408;2022-07-12T04:09:54;2.55;;;1.50;;
71763;SDS011;59602;52.142;5.408;2022-07-12T04:12:20;2.47;;;1.50;;
71763;SDS011;59602;52.142;5.408;2022-07-12T04:14:46;4.53;;;1.85;;
71763;SDS011;59602;52.142;5.408;2022-07-12T04:17:13;4.37;;;1.53;;
71763;SDS011;59602;52.142;5.408;2022-07-12T04:19:40;3.65;;;1.70;;
71763;SDS011;59602;52.142;5.408;2022-07-12T04:22:06;3.08;;;1.75;;
71763;SDS011;59602;52.142;5.408;2022-07-12T04:24:33;4.60;;;1.58;;
71763;SDS011;59602;52.142;5.408;2022-07-12T04:26:59;2.53;;;1.40;;
71763;SDS011;59602;52.142;5.408;2022-07-12T04:29:26;3.50;;;1.37;;
71763;SDS011;59602;52.142;5.408;2022-07-12T04:31:53;4.68;;;2.05;;
71763;SDS011;59602;52.142;5.408;2022-07-12T04:34:20;2.95;;;1.75;;
71763;SDS011;59602;52.142;5.408;2022-07-12T04:36:48;3.33;;;1.50;;
71763;SDS011;59602;52.142;5.408;2022-07-12T04:39:15;2.30;;;1.23;;
71763;SDS011;59602;52.142;5.408;2022-07-12T04:41:41;2.80;;;1.13;;
71763;SDS011;59602;52.142;5.408;2022-07-12T04:44:08;2.15;;;1.23;;
71763;SDS011;59602;52.142;5.408;2022-07-12T04:46:34;2.40;;;1.00;;
71763;SDS011;59602;52.142;5.408;2022-07-12T04:49:01;2.38;;;0.85;;
71763;SDS011;59602;52.142;5.408;2022-07-12T04:51:28;1.60;;;0.90;;
71763;SDS011;59602;52.142;5.408;2022-07-12T04:53:54;1.40;;;0.80;;
71763;SDS011;59602;52.142;5.408;2022-07-12T04:56:21;1.88;;;0.70;;
71763;SDS011;59602;52.142;5.408;2022-07-12T04:58:48;2.13;;;0.90;;
71763;SDS011;59602;52.142;5.408;2022-07-12T05:01:15;2.33;;;0.93;;
71763;SDS011;59602;52.142;5.408;2022-07-12T05:03:43;2.50;;;1.05;;
71763;SDS011;59602;52.142;5.408;2022-07-12T05:06:09;2.77;;;1.17;;
71763;SDS011;59602;52.142;5.408;2022-07-12T05:08:36;2.70;;;0.88;;
71763;SDS011;59602;52.142;5.408;2022-07-12T05:11:03;2.70;;;1.83;;
71763;SDS011;59602;52.142;5.408;2022-07-12T05:13:29;1.83;;;0.90;;
71763;SDS011;59602;52.142;5.408;2022-07-12T05:15:56;2.58;;;1.38;;
71763;SDS011;59602;52.142;5.408;2022-07-12T05:18:23;1.93;;;1.17;;
71763;SDS011;59602;52.142;5.408;2022-07-12T05:20:49;2.78;;;1.35;;
71763;SDS011;59602;52.142;5.408;2022-07-12T05:23:18;3.05;;;1.45;;
71763;SDS011;59602;52.142;5.408;2022-07-12T05:25:45;3.20;;;1.42;;
71763;SDS011;59602;52.142;5.408;2022-07-12T05:28:14;4.28;;;1.83;;
71763;SDS011;59602;52.142;5.408;2022-07-12T05:30:43;2.30;;;1.53;;
71763;SDS011;59602;52.142;5.408;2022-07-12T05:33:10;2.22;;;1.33;;
71763;SDS011;59602;52.142;5.408;2022-07-12T05:35:38;3.20;;;2.00;;
71763;SDS011;59602;52.142;5.408;2022-07-12T05:38:05;3.20;;;1.65;;
71763;SDS011;59602;52.142;5.408;2022-07-12T05:40:31;2.63;;;1.75;;
71763;SDS011;59602;52.142;5.408;2022-07-12T05:42:58;2.80;;;1.70;;
71763;SDS011;59602;52.142;5.408;2022-07-12T05:45:25;2.92;;;1.70;;
71763;SDS011;59602;52.142;5.408;2022-07-12T05:47:51;2.80;;;2.15;;
71763;SDS011;59602;52.142;5.408;2022-07-12T05:50:18;2.58;;;2.00;;
71763;SDS011;59602;52.142;5.408;2022-07-12T05:52:45;3.33;;;2.20;;
71763;SDS011;59602;52.142;5.408;2022-07-12T05:55:30;3.50;;;1.97;;
71763;SDS011;59602;52.142;5.408;2022-07-12T05:57:56;2.80;;;1.80;;
71763;SDS011;59602;52.142;5.408;2022-07-12T06:00:23;3.58;;;2.30;;
71763;SDS011;59602;52.142;5.408;2022-07-12T06:02:49;3.53;;;2.60;;
71763;SDS011;59602;52.142;5.408;2022-07-12T06:05:17;4.05;;;2.30;;
71763;SDS011;59602;52.142;5.408;2022-07-12T06:07:43;4.00;;;2.93;;
71763;SDS011;59602;52.142;5.408;2022-07-12T06:10:10;3.60;;;2.72;;
71763;SDS011;59602;52.142;5.408;2022-07-12T06:12:36;5.70;;;2.97;;
71763;SDS011;59602;52.142;5.408;2022-07-12T06:15:05;5.28;;;3.33;;
71763;SDS011;59602;52.142;5.408;2022-07-12T06:17:33;5.88;;;3.95;;
71763;SDS011;59602;52.142;5.408;2022-07-12T06:20:01;5.27;;;3.37;;
71763;SDS011;59602;52.142;5.408;2022-07-12T06:22:28;5.13;;;3.95;;
71763;SDS011;59602;52.142;5.408;2022-07-12T06:24:58;5.43;;;4.10;;
71763;SDS011;59602;52.142;5.408;2022-07-12T06:27:44;7.07;;;3.58;;
71763;SDS011;59602;52.142;5.408;2022-07-12T06:30:16;5.53;;;3.88;;
71763;SDS011;59602;52.142;5.408;2022-07-12T06:32:44;5.53;;;4.20;;
71763;SDS011;59602;52.142;5.408;2022-07-12T06:35:12;6.13;;;4.22;;
71763;SDS011;59602;52.142;5.408;2022-07-12T06:37:40;4.40;;;3.28;;
71763;SDS011;59602;52.142;5.408;2022-07-12T06:40:07;5.00;;;3.70;;
71763;SDS011;59602;52.142;5.408;2022-07-12T06:42:34;4.88;;;3.33;;
71763;SDS011;59602;52.142;5.408;2022-07-12T06:45:01;6.53;;;4.10;;
71763;SDS011;59602;52.142;5.408;2022-07-12T06:47:29;5.22;;;3.80;;
71763;SDS011;59602;52.142;5.408;2022-07-12T06:49:56;5.75;;;3.45;;
71763;SDS011;59602;52.142;5.408;2022-07-12T06:52:23;3.97;;;3.20;;
71763;SDS011;59602;52.142;5.408;2022-07-12T06:54:56;5.70;;;3.47;;
71763;SDS011;59602;52.142;5.408;2022-07-12T06:57:23;4.77;;;3.20;;
71763;SDS011;59602;52.142;5.408;2022-07-12T06:59:50;5.57;;;3.00;;
71763;SDS011;59602;52.142;5.408;2022-07-12T07:02:16;4.50;;;3.22;;
71763;SDS011;59602;52.142;5.408;2022-07-12T07:04:43;6.53;;;3.50;;
71763;SDS011;59602;52.142;5.408;2022-07-12T07:07:10;5.45;;;3.00;;
71763;SDS011;59602;52.142;5.408;2022-07-12T07:09:36;4.70;;;3.00;;
71763;SDS011;59602;52.142;5.408;2022-07-12T07:12:03;4.18;;;2.97;;
71763;SDS011;59602;52.142;5.408;2022-07-12T07:14:30;4.72;;;3.08;;
71763;SDS011;59602;52.142;5.408;2022-07-12T07:16:56;4.80;;;3.40;;
71763;SDS011;59602;52.142;5.408;2022-07-12T07:19:23;5.85;;;4.00;;
71763;SDS011;59602;52.142;5.408;2022-07-12T07:21:52;4.97;;;2.80;;
71763;SDS011;59602;52.142;5.408;2022-07-12T07:24:21;3.60;;;3.03;;
71763;SDS011;59602;52.142;5.408;2022-07-12T07:26:48;4.60;;;3.60;;
71763;SDS011;59602;52.142;5.408;2022-07-12T07:29:22;4.20;;;3.08;;
71763;SDS011;59602;52.142;5.408;2022-07-12T07:32:08;5.82;;;3.60;;
71763;SDS011;59602;52.142;5.408;2022-07-12T07:34:35;6.73;;;3.50;;
71763;SDS011;59602;52.142;5.408;2022-07-12T07:37:01;5.93;;;3.28;;
71763;SDS011;59602;52.142;5.408;2022-07-12T07:39:29;4.20;;;3.30;;
71763;SDS011;59602;52.142;5.408;2022-07-12T07:41:55;4.75;;;2.67;;
71763;SDS011;59602;52.142;5.408;2022-07-12T07:44:22;5.50;;;2.80;;
71763;SDS011;59602;52.142;5.408;2022-07-12T07:46:57;3.60;;;2.20;;
71763;SDS011;59602;52.142;5.408;2022-07-12T07:49:24;3.10;;;2.10;;
71763;SDS011;59602;52.142;5.408;2022-07-12T07:51:51;5.05;;;2.90;;
71763;SDS011;59602;52.142;5.408;2022-07-12T07:54:17;3.30;;;1.95;;
71763;SDS011;59602;52.142;5.408;2022-07-12T07:56:44;3.83;;;2.30;;
71763;SDS011;59602;52.142;5.408;2022-07-12T07:59:10;3.20;;;1.60;;
71763;SDS011;59602;52.142;5.408;2022-07-12T08:01:37;2.40;;;1.52;;
71763;SDS011;59602;52.142;5.408;2022-07-12T08:04:14;2.33;;;1.60;;
71763;SDS011;59602;52.142;5.408;2022-07-12T08:06:42;2.30;;;1.40;;
71763;SDS011;59602;52.142;5.408;2022-07-12T08:09:09;2.45;;;1.33;;
71763;SDS011;59602;52.142;5.408;2022-07-12T08:11:39;2.10;;;1.17;;
71763;SDS011;59602;52.142;5.408;2022-07-12T08:14:07;2.63;;;1.15;;
71763;SDS011;59602;52.142;5.408;2022-07-12T08:16:34;2.85;;;1.35;;
71763;SDS011;59602;52.142;5.408;2022-07-12T08:19:02;2.47;;;1.83;;
71763;SDS011;59602;52.142;5.408;2022-07-12T08:21:30;4.13;;;2.00;;
71763;SDS011;59602;52.142;5.408;2022-07-12T08:23:56;4.17;;;1.33;;
71763;SDS011;59602;52.142;5.408;2022-07-12T08:26:23;2.40;;;1.23;;
71763;SDS011;59602;52.142;5.408;2022-07-12T08:28:50;2.58;;;1.92;;
71763;SDS011;59602;52.142;5.408;2022-07-12T08:31:17;3.38;;;1.88;;
71763;SDS011;59602;52.142;5.408;2022-07-12T08:33:44;2.30;;;1.70;;
71763;SDS011;59602;52.142;5.408;2022-07-12T08:36:12;2.97;;;1.70;;
71763;SDS011;59602;52.142;5.408;2022-07-12T08:38:39;3.28;;;2.13;;
71763;SDS011;59602;52.142;5.408;2022-07-12T08:41:11;5.30;;;2.50;;
71763;SDS011;59602;52.142;5.408;2022-07-12T08:43:41;3.15;;;1.48;;
71763;SDS011;59602;52.142;5.408;2022-07-12T08:46:10;2.33;;;1.35;;
71763;SDS011;59602;52.142;5.408;2022-07-12T08:48:38;2.73;;;2.07;;
71763;SDS011;59602;52.142;5.408;2022-07-12T08:51:07;2.95;;;1.83;;
71763;SDS011;59602;52.142;5.408;2022-07-12T08:53:45;3.97;;;1.92;;
71763;SDS011;59602;52.142;5.408;2022-07-12T08:56:30;2.33;;;1.52;;
71763;SDS011;59602;52.142;5.408;2022-07-12T08:59:10;5.70;;;1.38;;
71763;SDS011;59602;52.142;5.408;2022-07-12T09:01:47;2.73;;;1.53;;
71763;SDS011;59602;52.142;5.408;2022-07-12T09:04:17;3.00;;;1.42;;
71763;SDS011;59602;52.142;5.408;2022-07-12T09:06:48;2.20;;;1.52;;
71763;SDS011;59602;52.142;5.408;2022-07-12T09:11:54;2.80;;;1.52;;
71763;SDS011;59602;52.142;5.408;2022-07-12T09:14:21;2.23;;;1.73;;
71763;SDS011;59602;52.142;5.408;2022-07-12T09:17:04;2.35;;;1.50;;
71763;SDS011;59602;52.142;5.408;2022-07-12T09:19:36;2.65;;;1.73;;
71763;SDS011;59602;52.142;5.408;2022-07-12T09:22:06;2.58;;;1.35;;
71763;SDS011;59602;52.142;5.408;2022-07-12T09:24:40;5.35;;;2.40;;
71763;SDS011;59602;52.142;5.408;2022-07-12T09:27:07;3.13;;;2.00;;
71763;SDS011;59602;52.142;5.408;2022-07-12T09:29:45;3.50;;;1.45;;
71763;SDS011;59602;52.142;5.408;2022-07-12T09:32:12;2.03;;;1.30;;
71763;SDS011;59602;52.142;5.408;2022-07-12T09:34:58;1.85;;;1.02;;
71763;SDS011;59602;52.142;5.408;2022-07-12T09:37:44;1.90;;;1.20;;
71763;SDS011;59602;52.142;5.408;2022-07-12T09:40:13;2.73;;;1.10;;
71763;SDS011;59602;52.142;5.408;2022-07-12T09:42:41;5.78;;;1.85;;
71763;SDS011;59602;52.142;5.408;2022-07-12T09:45:09;8.70;;;3.10;;
71763;SDS011;59602;52.142;5.408;2022-07-12T09:47:38;5.35;;;1.73;;
71763;SDS011;59602;52.142;5.408;2022-07-12T09:50:05;2.95;;;1.60;;
71763;SDS011;59602;52.142;5.408;2022-07-12T09:52:36;19.97;;;5.37;;
71763;SDS011;59602;52.142;5.408;2022-07-12T09:55:04;12.23;;;3.65;;
71763;SDS011;59602;52.142;5.408;2022-07-12T09:57:33;4.97;;;2.17;;
71763;SDS011;59602;52.142;5.408;2022-07-12T10:00:05;9.30;;;2.72;;
71763;SDS011;59602;52.142;5.408;2022-07-12T10:02:35;6.30;;;1.77;;
71763;SDS011;59602;52.142;5.408;2022-07-12T10:05:03;3.03;;;1.50;;
71763;SDS011;59602;52.142;5.408;2022-07-12T10:07:33;2.13;;;1.20;;
71763;SDS011;59602;52.142;5.408;2022-07-12T10:10:00;4.05;;;2.25;;
71763;SDS011;59602;52.142;5.408;2022-07-12T10:12:27;9.45;;;2.50;;
71763;SDS011;59602;52.142;5.408;2022-07-12T10:14:57;3.08;;;1.60;;
71763;SDS011;59602;52.142;5.408;2022-07-12T10:17:30;4.63;;;1.83;;
71763;SDS011;59602;52.142;5.408;2022-07-12T10:20:13;3.17;;;1.63;;
71763;SDS011;59602;52.142;5.408;2022-07-12T10:22:42;3.38;;;1.20;;
71763;SDS011;59602;52.142;5.408;2022-07-12T10:25:30;2.60;;;1.02;;
71763;SDS011;59602;52.142;5.408;2022-07-12T10:27:59;2.70;;;0.90;;
71763;SDS011;59602;52.142;5.408;2022-07-12T10:30:27;1.93;;;0.80;;
71763;SDS011;59602;52.142;5.408;2022-07-12T10:32:55;1.33;;;0.90;;
71763;SDS011;59602;52.142;5.408;2022-07-12T10:35:25;2.25;;;0.82;;
71763;SDS011;59602;52.142;5.408;2022-07-12T10:40:38;3.90;;;1.13;;
71763;SDS011;59602;52.142;5.408;2022-07-12T10:58:30;2.97;;;0.90;;
71763;SDS011;59602;52.142;5.408;2022-07-12T11:00:58;2.00;;;0.85;;
71763;SDS011;59602;52.142;5.408;2022-07-12T11:03:31;4.72;;;2.03;;
71763;SDS011;59602;52.142;5.408;2022-07-12T11:06:01;3.00;;;1.60;;
71763;SDS011;59602;52.142;5.408;2022-07-12T11:08:46;3.03;;;1.17;;
71763;SDS011;59602;52.142;5.408;2022-07-12T11:11:14;2.75;;;1.60;;
71763;SDS011;59602;52.142;5.408;2022-07-12T11:13:40;3.58;;;1.60;;
71763;SDS011;59602;52.142;5.408;2022-07-12T11:16:11;2.88;;;2.10;;
71763;SDS011;59602;52.142;5.408;2022-07-12T11:18:38;3.15;;;1.95;;
71763;SDS011;59602;52.142;5.408;2022-07-12T11:21:05;5.20;;;2.20;;
71763;SDS011;59602;52.142;5.408;2022-07-12T11:23:32;4.38;;;1.98;;
71763;SDS011;59602;52.142;5.408;2022-07-12T11:25:59;3.38;;;1.90;;
71763;SDS011;59602;52.142;5.408;2022-07-12T11:31:16;2.13;;;1.10;;
71763;SDS011;59602;52.142;5.408;2022-07-12T11:34:19;2.10;;;1.00;;
71763;SDS011;59602;52.142;5.408;2022-07-12T11:36:56;3.78;;;1.20;;
71763;SDS011;59602;52.142;5.408;2022-07-12T11:42:00;2.63;;;1.20;;
71763;SDS011;59602;52.142;5.408;2022-07-12T11:44:42;2.25;;;1.55;;
71763;SDS011;59602;52.142;5.408;2022-07-12T11:47:16;3.93;;;1.57;;
71763;SDS011;59602;52.142;5.408;2022-07-12T11:49:52;2.05;;;1.48;;
71763;SDS011;59602;52.142;5.408;2022-07-12T11:52:21;2.40;;;1.20;;
71763;SDS011;59602;52.142;5.408;2022-07-12T11:54:52;2.75;;;1.55;;
71763;SDS011;59602;52.142;5.408;2022-07-12T11:57:21;3.50;;;1.33;;
71763;SDS011;59602;52.142;5.408;2022-07-12T11:59:55;2.03;;;1.30;;
71763;SDS011;59602;52.142;5.408;2022-07-12T12:02:22;3.25;;;1.30;;
71763;SDS011;59602;52.142;5.408;2022-07-12T12:04:51;1.63;;;1.10;;
71763;SDS011;59602;52.142;5.408;2022-07-12T12:07:20;1.88;;;1.25;;
71763;SDS011;59602;52.142;5.408;2022-07-12T12:10:03;2.75;;;1.15;;
71763;SDS011;59602;52.142;5.408;2022-07-12T12:12:37;1.57;;;0.90;;
71763;SDS011;59602;52.142;5.408;2022-07-12T12:15:07;1.90;;;0.82;;
71763;SDS011;59602;52.142;5.408;2022-07-12T12:17:42;1.65;;;0.80;;
71763;SDS011;59602;52.142;5.408;2022-07-12T12:20:11;2.05;;;1.13;;
71763;SDS011;59602;52.142;5.408;2022-07-12T12:22:41;2.05;;;0.90;;
71763;SDS011;59602;52.142;5.408;2022-07-12T12:25:09;1.40;;;1.27;;
71763;SDS011;59602;52.142;5.408;2022-07-12T12:27:42;2.20;;;1.40;;
71763;SDS011;59602;52.142;5.408;2022-07-12T12:30:34;4.43;;;1.10;;
71763;SDS011;59602;52.142;5.408;2022-07-12T12:33:02;2.85;;;1.00;;
71763;SDS011;59602;52.142;5.408;2022-07-12T12:35:33;1.50;;;1.17;;
71763;SDS011;59602;52.142;5.408;2022-07-12T12:38:01;2.37;;;1.47;;
71763;SDS011;59602;52.142;5.408;2022-07-12T12:40:30;2.40;;;1.30;;
71763;SDS011;59602;52.142;5.408;2022-07-12T12:43:06;3.13;;;1.20;;
71763;SDS011;59602;52.142;5.408;2022-07-12T12:45:48;2.47;;;0.95;;
71763;SDS011;59602;52.142;5.408;2022-07-12T12:48:18;1.38;;;0.98;;
71763;SDS011;59602;52.142;5.408;2022-07-12T12:50:46;2.13;;;0.90;;
71763;SDS011;59602;52.142;5.408;2022-07-12T12:53:17;1.88;;;0.90;;
71763;SDS011;59602;52.142;5.408;2022-07-12T12:55:46;3.92;;;1.50;;
71763;SDS011;59602;52.142;5.408;2022-07-12T12:58:14;1.70;;;1.10;;
71763;SDS011;59602;52.142;5.408;2022-07-12T13:00:42;1.10;;;0.90;;
71763;SDS011;59602;52.142;5.408;2022-07-12T13:03:11;5.27;;;2.00;;
71763;SDS011;59602;52.142;5.408;2022-07-12T13:05:39;2.47;;;1.00;;
71763;SDS011;59602;52.142;5.408;2022-07-12T13:08:06;2.42;;;1.40;;
71763;SDS011;59602;52.142;5.408;2022-07-12T13:10:35;12.82;;;3.40;;
71763;SDS011;59602;52.142;5.408;2022-07-12T13:13:03;4.07;;;1.40;;
71763;SDS011;59602;52.142;5.408;2022-07-12T13:15:30;6.87;;;1.93;;
71763;SDS011;59602;52.142;5.408;2022-07-12T13:17:57;14.75;;;3.92;;
71763;SDS011;59602;52.142;5.408;2022-07-12T13:20:25;4.63;;;1.30;;
71763;SDS011;59602;52.142;5.408;2022-07-12T13:22:52;1.58;;;1.10;;
71763;SDS011;59602;52.142;5.408;2022-07-12T13:25:20;5.13;;;1.02;;
71763;SDS011;59602;52.142;5.408;2022-07-12T13:27:47;5.77;;;2.23;;
71763;SDS011;59602;52.142;5.408;2022-07-12T13:30:14;2.30;;;1.30;;
71763;SDS011;59602;52.142;5.408;2022-07-12T13:32:42;5.53;;;2.08;;
71763;SDS011;59602;52.142;5.408;2022-07-12T13:35:09;4.38;;;1.60;;
71763;SDS011;59602;52.142;5.408;2022-07-12T13:37:37;2.53;;;1.60;;
71763;SDS011;59602;52.142;5.408;2022-07-12T13:40:05;2.27;;;1.33;;
71763;SDS011;59602;52.142;5.408;2022-07-12T13:42:41;1.83;;;1.35;;
71763;SDS011;59602;52.142;5.408;2022-07-12T13:45:15;5.93;;;2.10;;
71763;SDS011;59602;52.142;5.408;2022-07-12T13:47:43;2.30;;;1.30;;
71763;SDS011;59602;52.142;5.408;2022-07-12T13:50:12;2.00;;;1.20;;
71763;SDS011;59602;52.142;5.408;2022-07-12T13:52:41;2.80;;;1.30;;
71763;SDS011;59602;52.142;5.408;2022-07-12T13:55:09;1.83;;;1.30;;
71763;SDS011;59602;52.142;5.408;2022-07-12T13:57:37;2.13;;;1.50;;
71763;SDS011;59602;52.142;5.408;2022-07-12T14:00:06;1.83;;;1.38;;
71763;SDS011;59602;52.142;5.408;2022-07-12T14:02:37;3.25;;;1.20;;
71763;SDS011;59602;52.142;5.408;2022-07-12T14:05:07;3.53;;;1.37;;
71763;SDS011;59602;52.142;5.408;2022-07-12T14:07:35;2.05;;;1.50;;
71763;SDS011;59602;52.142;5.408;2022-07-12T14:10:06;3.22;;;1.50;;
71763;SDS011;59602;52.142;5.408;2022-07-12T14:12:33;1.58;;;1.27;;
71763;SDS011;59602;52.142;5.408;2022-07-12T14:15:01;1.95;;;1.45;;
71763;SDS011;59602;52.142;5.408;2022-07-12T14:17:39;2.87;;;1.57;;
71763;SDS011;59602;52.142;5.408;2022-07-12T14:20:09;1.70;;;1.52;;
71763;SDS011;59602;52.142;5.408;2022-07-12T14:22:38;1.92;;;1.67;;
71763;SDS011;59602;52.142;5.408;2022-07-12T14:25:06;1.75;;;1.33;;
71763;SDS011;59602;52.142;5.408;2022-07-12T14:27:33;3.85;;;1.30;;
71763;SDS011;59602;52.142;5.408;2022-07-12T14:30:01;1.57;;;1.20;;
71763;SDS011;59602;52.142;5.408;2022-07-12T14:32:28;1.45;;;1.10;;
71763;SDS011;59602;52.142;5.408;2022-07-12T14:34:55;1.73;;;1.20;;
71763;SDS011;59602;52.142;5.408;2022-07-12T14:37:21;1.88;;;1.38;;
71763;SDS011;59602;52.142;5.408;2022-07-12T14:39:48;1.80;;;1.40;;
71763;SDS011;59602;52.142;5.408;2022-07-12T14:42:15;1.50;;;1.33;;
71763;SDS011;59602;52.142;5.408;2022-07-12T14:44:41;1.98;;;1.33;;
71763;SDS011;59602;52.142;5.408;2022-07-12T14:47:08;2.13;;;1.20;;
71763;SDS011;59602;52.142;5.408;2022-07-12T14:49:36;4.05;;;1.40;;
71763;SDS011;59602;52.142;5.408;2022-07-12T14:52:04;1.70;;;1.40;;
71763;SDS011;59602;52.142;5.408;2022-07-12T14:54:32;2.13;;;1.30;;
71763;SDS011;59602;52.142;5.408;2022-07-12T14:57:00;2.08;;;1.20;;
71763;SDS011;59602;52.142;5.408;2022-07-12T14:59:26;2.88;;;1.67;;
71763;SDS011;59602;52.142;5.408;2022-07-12T15:01:53;1.85;;;1.40;;
71763;SDS011;59602;52.142;5.408;2022-07-12T15:04:21;2.28;;;1.35;;
71763;SDS011;59602;52.142;5.408;2022-07-12T15:06:48;1.70;;;1.43;;
71763;SDS011;59602;52.142;5.408;2022-07-12T15:09:15;3.30;;;1.60;;
71763;SDS011;59602;52.142;5.408;2022-07-12T15:11:41;2.20;;;1.70;;
71763;SDS011;59602;52.142;5.408;2022-07-12T15:14:08;2.08;;;1.83;;
71763;SDS011;59602;52.142;5.408;2022-07-12T15:16:35;1.95;;;1.75;;
71763;SDS011;59602;52.142;5.408;2022-07-12T15:19:01;4.60;;;1.77;;
71763;SDS011;59602;52.142;5.408;2022-07-12T15:21:28;3.60;;;1.70;;
71763;SDS011;59602;52.142;5.408;2022-07-12T15:23:55;2.30;;;2.10;;